sensor_id;sensor_type;location;lat;lon;timestamp;P1;durP1;ratioP1;P2;durP2;ratioP2
4808;SDS011;2418;49.930;8.606;2022-12-11T00:00:16;67.87;;;35.57;;
4808;SDS011;2418;49.930;8.606;2022-12-11T00:02:41;66.33;;;35.13;;
4808;SDS011;2418;49.930;8.606;2022-12-11T00:05:07;70.30;;;35.70;;
4808;SDS011;2418;49.930;8.606;2022-12-11T00:07:33;69.53;;;35.80;;
4808;SDS011;2418;49.930;8.606;2022-12-11T00:09:59;62.47;;;33.92;;
4808;SDS011;2418;49.930;8.606;2022-12-11T00:12:24;65.15;;;34.58;;
4808;SDS011;2418;49.930;8.606;2022-12-11T00:14:50;61.20;;;33.47;;
4808;SDS011;2418;49.930;8.606;2022-12-11T00:17:16;58.00;;;32.25;;
4808;SDS011;2418;49.930;8.606;2022-12-11T00:19:41;67.85;;;34.67;;
4808;SDS011;2418;49.930;8.606;2022-12-11T00:22:07;59.28;;;32.92;;
4808;SDS011;2418;49.930;8.606;2022-12-11T00:24:33;58.15;;;33.40;;
4808;SDS011;2418;49.930;8.606;2022-12-11T00:26:58;60.30;;;34.13;;
4808;SDS011;2418;49.930;8.606;2022-12-11T00:29:24;62.20;;;35.30;;
4808;SDS011;2418;49.930;8.606;2022-12-11T00:31:49;63.75;;;34.67;;
4808;SDS011;2418;49.930;8.606;2022-12-11T00:34:15;57.05;;;33.05;;
4808;SDS011;2418;49.930;8.606;2022-12-11T00:36:41;56.85;;;31.08;;
4808;SDS011;2418;49.930;8.606;2022-12-11T00:39:06;57.78;;;31.73;;
4808;SDS011;2418;49.930;8.606;2022-12-11T00:41:32;63.03;;;32.70;;
4808;SDS011;2418;49.930;8.606;2022-12-11T00:43:58;57.97;;;33.53;;
4808;SDS011;2418;49.930;8.606;2022-12-11T00:46:23;60.73;;;32.43;;
4808;SDS011;2418;49.930;8.606;2022-12-11T00:48:49;62.10;;;35.03;;
4808;SDS011;2418;49.930;8.606;2022-12-11T00:51:15;59.90;;;33.03;;
4808;SDS011;2418;49.930;8.606;2022-12-11T00:53:42;57.45;;;31.20;;
4808;SDS011;2418;49.930;8.606;2022-12-11T00:56:09;56.95;;;31.88;;
4808;SDS011;2418;49.930;8.606;2022-12-11T00:58:42;53.53;;;31.33;;
4808;SDS011;2418;49.930;8.606;2022-12-11T01:01:10;50.83;;;30.58;;
4808;SDS011;2418;49.930;8.606;2022-12-11T01:03:38;58.80;;;33.17;;
4808;SDS011;2418;49.930;8.606;2022-12-11T01:06:04;55.53;;;31.95;;
4808;SDS011;2418;49.930;8.606;2022-12-11T01:08:30;55.83;;;31.80;;
4808;SDS011;2418;49.930;8.606;2022-12-11T01:11:03;51.47;;;30.03;;
4808;SDS011;2418;49.930;8.606;2022-12-11T01:13:30;51.42;;;30.40;;
4808;SDS011;2418;49.930;8.606;2022-12-11T01:15:56;51.72;;;30.88;;
4808;SDS011;2418;49.930;8.606;2022-12-11T01:18:22;52.70;;;29.70;;
4808;SDS011;2418;49.930;8.606;2022-12-11T01:20:47;50.63;;;30.10;;
4808;SDS011;2418;49.930;8.606;2022-12-11T01:23:13;58.25;;;31.90;;
4808;SDS011;2418;49.930;8.606;2022-12-11T01:25:39;53.08;;;30.80;;
4808;SDS011;2418;49.930;8.606;2022-12-11T01:28:05;56.42;;;30.58;;
4808;SDS011;2418;49.930;8.606;2022-12-11T01:30:31;52.50;;;30.80;;
4808;SDS011;2418;49.930;8.606;2022-12-11T01:32:57;58.20;;;32.13;;
4808;SDS011;2418;49.930;8.606;2022-12-11T01:35:24;54.53;;;32.88;;
4808;SDS011;2418;49.930;8.606;2022-12-11T01:37:50;53.50;;;30.73;;
4808;SDS011;2418;49.930;8.606;2022-12-11T01:40:16;53.67;;;32.23;;
4808;SDS011;2418;49.930;8.606;2022-12-11T01:42:43;54.10;;;31.20;;
4808;SDS011;2418;49.930;8.606;2022-12-11T01:48:06;55.30;;;32.28;;
4808;SDS011;2418;49.930;8.606;2022-12-11T01:50:37;54.65;;;31.92;;
4808;SDS011;2418;49.930;8.606;2022-12-11T01:53:06;55.42;;;31.52;;
4808;SDS011;2418;49.930;8.606;2022-12-11T01:55:34;54.72;;;31.20;;
4808;SDS011;2418;49.930;8.606;2022-12-11T01:58:01;48.33;;;29.63;;
4808;SDS011;2418;49.930;8.606;2022-12-11T02:00:27;50.83;;;29.70;;
4808;SDS011;2418;49.930;8.606;2022-12-11T02:02:53;50.43;;;30.20;;
4808;SDS011;2418;49.930;8.606;2022-12-11T02:05:19;51.40;;;29.97;;
4808;SDS011;2418;49.930;8.606;2022-12-11T02:07:51;49.80;;;29.33;;
4808;SDS011;2418;49.930;8.606;2022-12-11T02:10:21;49.30;;;30.45;;
4808;SDS011;2418;49.930;8.606;2022-12-11T02:12:59;52.60;;;30.45;;
4808;SDS011;2418;49.930;8.606;2022-12-11T02:15:47;53.17;;;29.50;;
4808;SDS011;2418;49.930;8.606;2022-12-11T02:18:38;50.83;;;30.30;;
4808;SDS011;2418;49.930;8.606;2022-12-11T02:21:16;50.55;;;30.38;;
4808;SDS011;2418;49.930;8.606;2022-12-11T02:24:03;53.10;;;30.50;;
4808;SDS011;2418;49.930;8.606;2022-12-11T02:29:34;50.25;;;28.98;;
4808;SDS011;2418;49.930;8.606;2022-12-11T02:32:24;52.50;;;29.65;;
4808;SDS011;2418;49.930;8.606;2022-12-11T02:37:20;50.80;;;29.00;;
4808;SDS011;2418;49.930;8.606;2022-12-11T02:39:49;48.60;;;28.20;;
4808;SDS011;2418;49.930;8.606;2022-12-11T02:42:18;52.33;;;28.98;;
4808;SDS011;2418;49.930;8.606;2022-12-11T02:44:45;50.83;;;29.55;;
4808;SDS011;2418;49.930;8.606;2022-12-11T02:47:13;50.33;;;29.80;;
4808;SDS011;2418;49.930;8.606;2022-12-11T02:49:41;49.73;;;29.60;;
4808;SDS011;2418;49.930;8.606;2022-12-11T02:52:11;51.28;;;29.10;;
4808;SDS011;2418;49.930;8.606;2022-12-11T02:54:41;50.33;;;29.17;;
4808;SDS011;2418;49.930;8.606;2022-12-11T02:59:52;52.40;;;29.30;;
4808;SDS011;2418;49.930;8.606;2022-12-11T03:02:18;51.75;;;30.38;;
4808;SDS011;2418;49.930;8.606;2022-12-11T03:04:44;52.45;;;29.25;;
4808;SDS011;2418;49.930;8.606;2022-12-11T03:07:13;53.57;;;31.00;;
4808;SDS011;2418;49.930;8.606;2022-12-11T03:09:44;55.72;;;30.58;;
4808;SDS011;2418;49.930;8.606;2022-12-11T03:12:12;55.45;;;29.83;;
4808;SDS011;2418;49.930;8.606;2022-12-11T03:14:43;48.38;;;29.45;;
4808;SDS011;2418;49.930;8.606;2022-12-11T03:19:44;48.22;;;29.73;;
4808;SDS011;2418;49.930;8.606;2022-12-11T03:22:29;52.88;;;29.48;;
4808;SDS011;2418;49.930;8.606;2022-12-11T03:25:13;50.25;;;29.17;;
4808;SDS011;2418;49.930;8.606;2022-12-11T03:27:46;54.33;;;31.10;;
4808;SDS011;2418;49.930;8.606;2022-12-11T03:30:14;55.97;;;31.93;;
4808;SDS011;2418;49.930;8.606;2022-12-11T03:32:45;51.63;;;31.10;;
4808;SDS011;2418;49.930;8.606;2022-12-11T03:36:09;60.00;;;33.00;;
4808;SDS011;2418;49.930;8.606;2022-12-11T03:38:32;56.42;;;31.17;;
4808;SDS011;2418;49.930;8.606;2022-12-11T03:41:05;50.78;;;30.00;;
4808;SDS011;2418;49.930;8.606;2022-12-11T03:43:33;50.03;;;29.88;;
4808;SDS011;2418;49.930;8.606;2022-12-11T03:46:02;52.57;;;31.00;;
4808;SDS011;2418;49.930;8.606;2022-12-11T03:48:30;64.28;;;35.13;;
4808;SDS011;2418;49.930;8.606;2022-12-11T03:51:00;54.53;;;32.65;;
4808;SDS011;2418;49.930;8.606;2022-12-11T03:53:29;49.67;;;30.15;;
4808;SDS011;2418;49.930;8.606;2022-12-11T03:55:57;51.30;;;30.60;;
4808;SDS011;2418;49.930;8.606;2022-12-11T03:58:24;55.50;;;31.45;;
4808;SDS011;2418;49.930;8.606;2022-12-11T04:00:50;52.87;;;30.60;;
4808;SDS011;2418;49.930;8.606;2022-12-11T04:03:15;56.57;;;30.00;;
4808;SDS011;2418;49.930;8.606;2022-12-11T04:05:46;53.25;;;29.58;;
4808;SDS011;2418;49.930;8.606;2022-12-11T04:08:15;49.72;;;30.02;;
4808;SDS011;2418;49.930;8.606;2022-12-11T04:10:41;53.05;;;30.70;;
4808;SDS011;2418;49.930;8.606;2022-12-11T04:13:07;55.17;;;30.70;;
4808;SDS011;2418;49.930;8.606;2022-12-11T04:15:34;54.83;;;30.63;;
4808;SDS011;2418;49.930;8.606;2022-12-11T04:18:00;48.40;;;29.55;;
4808;SDS011;2418;49.930;8.606;2022-12-11T04:20:44;55.63;;;31.58;;
4808;SDS011;2418;49.930;8.606;2022-12-11T04:23:29;53.75;;;31.77;;
4808;SDS011;2418;49.930;8.606;2022-12-11T04:26:15;61.80;;;35.05;;
4808;SDS011;2418;49.930;8.606;2022-12-11T04:28:43;52.97;;;32.72;;
4808;SDS011;2418;49.930;8.606;2022-12-11T04:31:11;57.33;;;34.20;;
4808;SDS011;2418;49.930;8.606;2022-12-11T04:33:38;53.43;;;32.00;;
4808;SDS011;2418;49.930;8.606;2022-12-11T04:36:04;55.20;;;33.63;;
4808;SDS011;2418;49.930;8.606;2022-12-11T04:38:30;56.25;;;32.50;;
4808;SDS011;2418;49.930;8.606;2022-12-11T04:40:56;54.93;;;31.93;;
4808;SDS011;2418;49.930;8.606;2022-12-11T04:43:26;53.22;;;31.20;;
4808;SDS011;2418;49.930;8.606;2022-12-11T04:46:02;55.37;;;32.97;;
4808;SDS011;2418;49.930;8.606;2022-12-11T04:48:30;54.20;;;31.45;;
4808;SDS011;2418;49.930;8.606;2022-12-11T04:50:55;53.75;;;31.58;;
4808;SDS011;2418;49.930;8.606;2022-12-11T04:53:21;52.28;;;32.40;;
4808;SDS011;2418;49.930;8.606;2022-12-11T04:55:46;52.20;;;31.75;;
4808;SDS011;2418;49.930;8.606;2022-12-11T04:58:12;50.67;;;31.15;;
4808;SDS011;2418;49.930;8.606;2022-12-11T05:00:38;50.45;;;30.77;;
4808;SDS011;2418;49.930;8.606;2022-12-11T05:03:04;55.85;;;33.70;;
4808;SDS011;2418;49.930;8.606;2022-12-11T05:05:30;52.13;;;31.00;;
4808;SDS011;2418;49.930;8.606;2022-12-11T05:07:55;55.07;;;33.10;;
4808;SDS011;2418;49.930;8.606;2022-12-11T05:10:21;56.67;;;32.20;;
4808;SDS011;2418;49.930;8.606;2022-12-11T05:12:47;58.38;;;34.28;;
4808;SDS011;2418;49.930;8.606;2022-12-11T05:15:13;54.55;;;33.28;;
4808;SDS011;2418;49.930;8.606;2022-12-11T05:17:38;58.53;;;34.90;;
4808;SDS011;2418;49.930;8.606;2022-12-11T05:20:04;55.40;;;34.55;;
4808;SDS011;2418;49.930;8.606;2022-12-11T05:22:30;57.75;;;32.85;;
4808;SDS011;2418;49.930;8.606;2022-12-11T05:24:56;61.40;;;35.05;;
4808;SDS011;2418;49.930;8.606;2022-12-11T05:27:21;61.55;;;35.95;;
4808;SDS011;2418;49.930;8.606;2022-12-11T05:29:47;65.47;;;36.38;;
4808;SDS011;2418;49.930;8.606;2022-12-11T05:32:14;62.10;;;35.10;;
4808;SDS011;2418;49.930;8.606;2022-12-11T05:34:40;63.22;;;37.83;;
4808;SDS011;2418;49.930;8.606;2022-12-11T05:37:06;65.10;;;36.47;;
4808;SDS011;2418;49.930;8.606;2022-12-11T05:39:31;66.72;;;35.90;;
4808;SDS011;2418;49.930;8.606;2022-12-11T05:41:57;63.23;;;36.00;;
4808;SDS011;2418;49.930;8.606;2022-12-11T05:44:23;61.03;;;35.97;;
4808;SDS011;2418;49.930;8.606;2022-12-11T05:46:49;70.13;;;35.78;;
4808;SDS011;2418;49.930;8.606;2022-12-11T05:49:18;66.20;;;37.83;;
4808;SDS011;2418;49.930;8.606;2022-12-11T05:51:44;65.40;;;36.63;;
4808;SDS011;2418;49.930;8.606;2022-12-11T05:54:10;66.00;;;37.07;;
4808;SDS011;2418;49.930;8.606;2022-12-11T05:56:36;63.70;;;36.30;;
4808;SDS011;2418;49.930;8.606;2022-12-11T05:59:03;63.47;;;35.97;;
4808;SDS011;2418;49.930;8.606;2022-12-11T06:01:31;64.85;;;36.67;;
4808;SDS011;2418;49.930;8.606;2022-12-11T06:03:59;65.10;;;37.25;;
4808;SDS011;2418;49.930;8.606;2022-12-11T06:06:25;63.63;;;37.25;;
4808;SDS011;2418;49.930;8.606;2022-12-11T06:08:54;67.85;;;37.95;;
4808;SDS011;2418;49.930;8.606;2022-12-11T06:11:21;66.18;;;38.20;;
4808;SDS011;2418;49.930;8.606;2022-12-11T06:13:48;66.53;;;38.40;;
4808;SDS011;2418;49.930;8.606;2022-12-11T06:16:14;66.88;;;37.58;;
4808;SDS011;2418;49.930;8.606;2022-12-11T06:18:41;64.63;;;36.85;;
4808;SDS011;2418;49.930;8.606;2022-12-11T06:21:15;67.25;;;38.63;;
4808;SDS011;2418;49.930;8.606;2022-12-11T06:23:50;65.32;;;38.13;;
4808;SDS011;2418;49.930;8.606;2022-12-11T06:26:17;63.95;;;37.45;;
4808;SDS011;2418;49.930;8.606;2022-12-11T06:28:44;66.00;;;38.80;;
4808;SDS011;2418;49.930;8.606;2022-12-11T06:31:10;64.35;;;37.88;;
4808;SDS011;2418;49.930;8.606;2022-12-11T06:33:36;62.73;;;37.57;;
4808;SDS011;2418;49.930;8.606;2022-12-11T06:36:06;62.80;;;37.58;;
4808;SDS011;2418;49.930;8.606;2022-12-11T06:38:34;65.68;;;38.33;;
4808;SDS011;2418;49.930;8.606;2022-12-11T06:41:00;66.15;;;37.78;;
4808;SDS011;2418;49.930;8.606;2022-12-11T06:43:28;69.07;;;37.13;;
4808;SDS011;2418;49.930;8.606;2022-12-11T06:45:55;68.68;;;37.85;;
4808;SDS011;2418;49.930;8.606;2022-12-11T06:48:20;67.40;;;38.37;;
4808;SDS011;2418;49.930;8.606;2022-12-11T06:50:46;83.90;;;44.33;;
4808;SDS011;2418;49.930;8.606;2022-12-11T06:53:14;97.73;;;49.03;;
4808;SDS011;2418;49.930;8.606;2022-12-11T06:55:40;85.03;;;45.30;;
4808;SDS011;2418;49.930;8.606;2022-12-11T06:58:06;85.10;;;45.63;;
4808;SDS011;2418;49.930;8.606;2022-12-11T07:00:36;85.80;;;44.53;;
4808;SDS011;2418;49.930;8.606;2022-12-11T07:03:02;84.10;;;43.90;;
4808;SDS011;2418;49.930;8.606;2022-12-11T07:05:30;78.93;;;42.60;;
4808;SDS011;2418;49.930;8.606;2022-12-11T07:07:57;85.55;;;44.63;;
4808;SDS011;2418;49.930;8.606;2022-12-11T07:10:23;80.72;;;43.17;;
4808;SDS011;2418;49.930;8.606;2022-12-11T07:12:53;84.70;;;43.93;;
4808;SDS011;2418;49.930;8.606;2022-12-11T07:15:18;84.60;;;45.00;;
4808;SDS011;2418;49.930;8.606;2022-12-11T07:17:48;88.40;;;44.78;;
4808;SDS011;2418;49.930;8.606;2022-12-11T07:20:14;104.10;;;50.05;;
4808;SDS011;2418;49.930;8.606;2022-12-11T07:22:41;79.10;;;41.20;;
4808;SDS011;2418;49.930;8.606;2022-12-11T07:25:07;78.80;;;41.33;;
4808;SDS011;2418;49.930;8.606;2022-12-11T07:27:33;67.78;;;38.90;;
4808;SDS011;2418;49.930;8.606;2022-12-11T07:29:58;66.87;;;38.53;;
4808;SDS011;2418;49.930;8.606;2022-12-11T07:32:24;78.53;;;41.60;;
4808;SDS011;2418;49.930;8.606;2022-12-11T07:34:51;61.30;;;35.42;;
4808;SDS011;2418;49.930;8.606;2022-12-11T07:37:18;66.25;;;38.58;;
4808;SDS011;2418;49.930;8.606;2022-12-11T07:39:43;63.03;;;36.70;;
4808;SDS011;2418;49.930;8.606;2022-12-11T07:42:09;73.87;;;38.90;;
4808;SDS011;2418;49.930;8.606;2022-12-11T07:44:34;71.97;;;39.00;;
4808;SDS011;2418;49.930;8.606;2022-12-11T07:47:00;59.50;;;36.10;;
4808;SDS011;2418;49.930;8.606;2022-12-11T07:49:27;65.65;;;36.97;;
4808;SDS011;2418;49.930;8.606;2022-12-11T07:51:53;65.28;;;38.42;;
4808;SDS011;2418;49.930;8.606;2022-12-11T07:54:18;70.80;;;38.65;;
4808;SDS011;2418;49.930;8.606;2022-12-11T07:56:47;71.33;;;39.40;;
4808;SDS011;2418;49.930;8.606;2022-12-11T07:59:12;68.25;;;38.85;;
4808;SDS011;2418;49.930;8.606;2022-12-11T08:01:39;65.80;;;38.50;;
4808;SDS011;2418;49.930;8.606;2022-12-11T08:04:06;68.75;;;38.95;;
4808;SDS011;2418;49.930;8.606;2022-12-11T08:06:36;70.77;;;38.23;;
4808;SDS011;2418;49.930;8.606;2022-12-11T08:09:04;71.72;;;38.53;;
4808;SDS011;2418;49.930;8.606;2022-12-11T08:11:31;68.60;;;39.72;;
4808;SDS011;2418;49.930;8.606;2022-12-11T08:13:57;65.30;;;36.60;;
4808;SDS011;2418;49.930;8.606;2022-12-11T08:16:23;68.00;;;37.67;;
4808;SDS011;2418;49.930;8.606;2022-12-11T08:18:50;69.07;;;38.30;;
4808;SDS011;2418;49.930;8.606;2022-12-11T08:23:43;69.68;;;38.75;;
4808;SDS011;2418;49.930;8.606;2022-12-11T08:26:13;68.20;;;38.30;;
4808;SDS011;2418;49.930;8.606;2022-12-11T08:28:42;65.45;;;36.75;;
4808;SDS011;2418;49.930;8.606;2022-12-11T08:31:08;65.00;;;36.90;;
4808;SDS011;2418;49.930;8.606;2022-12-11T08:33:35;64.78;;;36.85;;
4808;SDS011;2418;49.930;8.606;2022-12-11T08:36:02;66.00;;;36.50;;
4808;SDS011;2418;49.930;8.606;2022-12-11T08:38:32;73.75;;;39.20;;
4808;SDS011;2418;49.930;8.606;2022-12-11T08:40:58;96.68;;;47.75;;
4808;SDS011;2418;49.930;8.606;2022-12-11T08:43:24;78.35;;;41.63;;
4808;SDS011;2418;49.930;8.606;2022-12-11T08:45:49;70.27;;;41.83;;
4808;SDS011;2418;49.930;8.606;2022-12-11T08:48:15;70.70;;;39.30;;
4808;SDS011;2418;49.930;8.606;2022-12-11T08:50:40;64.37;;;37.87;;
4808;SDS011;2418;49.930;8.606;2022-12-11T08:53:07;62.80;;;38.87;;
4808;SDS011;2418;49.930;8.606;2022-12-11T08:55:33;59.80;;;36.17;;
4808;SDS011;2418;49.930;8.606;2022-12-11T08:57:59;63.13;;;36.87;;
4808;SDS011;2418;49.930;8.606;2022-12-11T09:00:25;65.50;;;36.63;;
4808;SDS011;2418;49.930;8.606;2022-12-11T09:02:50;68.87;;;37.50;;
4808;SDS011;2418;49.930;8.606;2022-12-11T09:05:16;66.50;;;36.50;;
4808;SDS011;2418;49.930;8.606;2022-12-11T09:07:42;69.23;;;37.10;;
4808;SDS011;2418;49.930;8.606;2022-12-11T09:10:08;65.93;;;36.83;;
4808;SDS011;2418;49.930;8.606;2022-12-11T09:12:34;68.73;;;37.73;;
4808;SDS011;2418;49.930;8.606;2022-12-11T09:15:00;69.30;;;36.60;;
4808;SDS011;2418;49.930;8.606;2022-12-11T09:17:25;70.07;;;39.20;;
4808;SDS011;2418;49.930;8.606;2022-12-11T09:19:51;68.20;;;36.37;;
4808;SDS011;2418;49.930;8.606;2022-12-11T09:22:17;69.57;;;38.33;;
4808;SDS011;2418;49.930;8.606;2022-12-11T09:24:43;70.68;;;38.00;;
4808;SDS011;2418;49.930;8.606;2022-12-11T09:27:10;69.63;;;37.83;;
4808;SDS011;2418;49.930;8.606;2022-12-11T09:29:35;71.20;;;39.23;;
4808;SDS011;2418;49.930;8.606;2022-12-11T09:32:02;66.80;;;38.92;;
4808;SDS011;2418;49.930;8.606;2022-12-11T09:34:27;71.50;;;39.73;;
4808;SDS011;2418;49.930;8.606;2022-12-11T09:36:55;66.50;;;36.70;;
4808;SDS011;2418;49.930;8.606;2022-12-11T09:39:51;68.90;;;36.85;;
4808;SDS011;2418;49.930;8.606;2022-12-11T09:42:18;68.68;;;36.60;;
4808;SDS011;2418;49.930;8.606;2022-12-11T09:44:52;66.00;;;36.05;;
4808;SDS011;2418;49.930;8.606;2022-12-11T09:47:32;70.60;;;37.20;;
4808;SDS011;2418;49.930;8.606;2022-12-11T09:50:09;69.65;;;37.58;;
4808;SDS011;2418;49.930;8.606;2022-12-11T09:55:20;65.50;;;36.63;;
4808;SDS011;2418;49.930;8.606;2022-12-11T09:57:56;62.47;;;36.63;;
4808;SDS011;2418;49.930;8.606;2022-12-11T10:00:39;65.20;;;36.30;;
4808;SDS011;2418;49.930;8.606;2022-12-11T10:03:18;70.27;;;37.33;;
4808;SDS011;2418;49.930;8.606;2022-12-11T10:12:02;68.22;;;35.42;;
4808;SDS011;2418;49.930;8.606;2022-12-11T10:17:01;78.20;;;39.70;;
4808;SDS011;2418;49.930;8.606;2022-12-11T10:19:36;72.85;;;37.55;;
4808;SDS011;2418;49.930;8.606;2022-12-11T10:22:03;73.13;;;36.35;;
4808;SDS011;2418;49.930;8.606;2022-12-11T10:24:44;63.90;;;34.75;;
4808;SDS011;2418;49.930;8.606;2022-12-11T10:27:20;56.80;;;34.17;;
4808;SDS011;2418;49.930;8.606;2022-12-11T10:29:48;61.50;;;34.45;;
4808;SDS011;2418;49.930;8.606;2022-12-11T10:32:24;67.53;;;36.75;;
4808;SDS011;2418;49.930;8.606;2022-12-11T10:35:08;59.65;;;34.78;;
4808;SDS011;2418;49.930;8.606;2022-12-11T10:38:00;61.38;;;33.83;;
4808;SDS011;2418;49.930;8.606;2022-12-11T10:40:41;65.00;;;34.97;;
4808;SDS011;2418;49.930;8.606;2022-12-11T10:43:08;58.33;;;33.65;;
4808;SDS011;2418;49.930;8.606;2022-12-11T10:45:35;64.75;;;34.28;;
4808;SDS011;2418;49.930;8.606;2022-12-11T10:48:05;60.43;;;33.77;;
4808;SDS011;2418;49.930;8.606;2022-12-11T10:50:35;59.72;;;33.60;;
4808;SDS011;2418;49.930;8.606;2022-12-11T10:53:02;56.00;;;31.80;;
4808;SDS011;2418;49.930;8.606;2022-12-11T10:55:29;61.08;;;33.92;;
4808;SDS011;2418;49.930;8.606;2022-12-11T10:58:02;66.18;;;37.85;;
4808;SDS011;2418;49.930;8.606;2022-12-11T11:00:39;61.92;;;37.75;;
4808;SDS011;2418;49.930;8.606;2022-12-11T11:03:27;87.63;;;57.55;;
4808;SDS011;2418;49.930;8.606;2022-12-11T11:06:03;55.40;;;34.30;;
4808;SDS011;2418;49.930;8.606;2022-12-11T11:08:43;64.40;;;36.55;;
4808;SDS011;2418;49.930;8.606;2022-12-11T11:11:52;57.47;;;32.20;;
4808;SDS011;2418;49.930;8.606;2022-12-11T11:14:09;63.13;;;34.33;;
4808;SDS011;2418;49.930;8.606;2022-12-11T11:16:44;65.53;;;33.35;;
4808;SDS011;2418;49.930;8.606;2022-12-11T11:19:22;63.13;;;31.65;;
4808;SDS011;2418;49.930;8.606;2022-12-11T11:21:55;58.88;;;33.95;;
4808;SDS011;2418;49.930;8.606;2022-12-11T11:24:37;69.85;;;37.75;;
4808;SDS011;2418;49.930;8.606;2022-12-11T11:29:59;56.05;;;31.58;;
4808;SDS011;2418;49.930;8.606;2022-12-11T11:32:31;55.90;;;29.98;;
4808;SDS011;2418;49.930;8.606;2022-12-11T11:37:35;60.00;;;33.40;;
4808;SDS011;2418;49.930;8.606;2022-12-11T11:45:38;60.22;;;31.10;;
4808;SDS011;2418;49.930;8.606;2022-12-11T11:48:43;56.47;;;30.80;;
4808;SDS011;2418;49.930;8.606;2022-12-11T11:57:11;60.90;;;32.97;;
4808;SDS011;2418;49.930;8.606;2022-12-11T11:59:48;60.35;;;34.95;;
4808;SDS011;2418;49.930;8.606;2022-12-11T12:02:19;55.15;;;32.53;;
4808;SDS011;2418;49.930;8.606;2022-12-11T12:04:45;62.13;;;33.23;;
4808;SDS011;2418;49.930;8.606;2022-12-11T12:07:29;58.13;;;32.45;;
4808;SDS011;2418;49.930;8.606;2022-12-11T12:10:12;61.87;;;33.20;;
4808;SDS011;2418;49.930;8.606;2022-12-11T12:12:44;63.95;;;32.92;;
4808;SDS011;2418;49.930;8.606;2022-12-11T12:15:22;59.10;;;33.63;;
4808;SDS011;2418;49.930;8.606;2022-12-11T12:20:37;62.75;;;32.10;;
4808;SDS011;2418;49.930;8.606;2022-12-11T12:23:19;58.83;;;33.40;;
4808;SDS011;2418;49.930;8.606;2022-12-11T12:31:13;65.45;;;34.95;;
4808;SDS011;2418;49.930;8.606;2022-12-11T12:34:09;65.25;;;35.13;;
4808;SDS011;2418;49.930;8.606;2022-12-11T12:44:17;63.50;;;35.80;;
4808;SDS011;2418;49.930;8.606;2022-12-11T12:46:58;71.97;;;37.85;;
4808;SDS011;2418;49.930;8.606;2022-12-11T12:49:40;66.95;;;35.85;;
4808;SDS011;2418;49.930;8.606;2022-12-11T12:52:14;68.72;;;36.33;;
4808;SDS011;2418;49.930;8.606;2022-12-11T12:55:04;65.03;;;35.22;;
4808;SDS011;2418;49.930;8.606;2022-12-11T12:57:48;61.40;;;33.90;;
4808;SDS011;2418;49.930;8.606;2022-12-11T13:03:31;65.80;;;34.13;;
4808;SDS011;2418;49.930;8.606;2022-12-11T13:08:40;60.20;;;33.53;;
4808;SDS011;2418;49.930;8.606;2022-12-11T13:11:07;74.72;;;38.05;;
4808;SDS011;2418;49.930;8.606;2022-12-11T13:13:36;61.33;;;33.22;;
4808;SDS011;2418;49.930;8.606;2022-12-11T13:16:05;69.03;;;34.65;;
4808;SDS011;2418;49.930;8.606;2022-12-11T13:18:40;64.63;;;34.57;;
4808;SDS011;2418;49.930;8.606;2022-12-11T13:21:26;62.00;;;34.50;;
4808;SDS011;2418;49.930;8.606;2022-12-11T13:26:52;72.38;;;35.95;;
4808;SDS011;2418;49.930;8.606;2022-12-11T13:29:34;61.70;;;34.73;;
4808;SDS011;2418;49.930;8.606;2022-12-11T13:32:03;72.55;;;35.60;;
4808;SDS011;2418;49.930;8.606;2022-12-11T13:34:32;63.60;;;32.28;;
4808;SDS011;2418;49.930;8.606;2022-12-11T13:37:04;61.83;;;33.45;;
4808;SDS011;2418;49.930;8.606;2022-12-11T13:39:33;63.67;;;33.30;;
4808;SDS011;2418;49.930;8.606;2022-12-11T13:42:03;61.55;;;33.05;;
4808;SDS011;2418;49.930;8.606;2022-12-11T13:44:35;67.28;;;33.35;;
4808;SDS011;2418;49.930;8.606;2022-12-11T13:47:06;64.50;;;34.63;;
4808;SDS011;2418;49.930;8.606;2022-12-11T13:49:38;60.27;;;33.27;;
4808;SDS011;2418;49.930;8.606;2022-12-11T13:52:14;59.05;;;33.25;;
4808;SDS011;2418;49.930;8.606;2022-12-11T13:54:46;61.33;;;33.33;;
4808;SDS011;2418;49.930;8.606;2022-12-11T13:57:17;65.50;;;32.80;;
4808;SDS011;2418;49.930;8.606;2022-12-11T13:59:48;60.88;;;31.83;;
4808;SDS011;2418;49.930;8.606;2022-12-11T14:02:18;62.78;;;32.72;;
4808;SDS011;2418;49.930;8.606;2022-12-11T14:05:01;60.95;;;32.75;;
4808;SDS011;2418;49.930;8.606;2022-12-11T14:07:31;67.30;;;36.80;;
4808;SDS011;2418;49.930;8.606;2022-12-11T14:10:03;65.63;;;34.75;;
4808;SDS011;2418;49.930;8.606;2022-12-11T14:12:32;60.30;;;32.72;;
4808;SDS011;2418;49.930;8.606;2022-12-11T14:14:58;68.40;;;37.90;;
4808;SDS011;2418;49.930;8.606;2022-12-11T14:17:27;65.70;;;35.25;;
4808;SDS011;2418;49.930;8.606;2022-12-11T14:19:56;72.18;;;37.58;;
4808;SDS011;2418;49.930;8.606;2022-12-11T14:22:26;64.50;;;36.05;;
4808;SDS011;2418;49.930;8.606;2022-12-11T14:24:57;63.33;;;35.08;;
4808;SDS011;2418;49.930;8.606;2022-12-11T14:27:27;66.82;;;34.88;;
4808;SDS011;2418;49.930;8.606;2022-12-11T14:29:53;65.20;;;35.50;;
4808;SDS011;2418;49.930;8.606;2022-12-11T14:35:01;60.13;;;33.35;;
4808;SDS011;2418;49.930;8.606;2022-12-11T14:37:30;66.10;;;33.78;;
4808;SDS011;2418;49.930;8.606;2022-12-11T14:42:27;77.32;;;40.63;;
4808;SDS011;2418;49.930;8.606;2022-12-11T14:45:02;72.35;;;38.60;;
4808;SDS011;2418;49.930;8.606;2022-12-11T14:47:38;67.45;;;35.85;;
4808;SDS011;2418;49.930;8.606;2022-12-11T14:52:56;70.80;;;36.10;;
4808;SDS011;2418;49.930;8.606;2022-12-11T14:55:28;80.82;;;38.78;;
4808;SDS011;2418;49.930;8.606;2022-12-11T14:57:57;71.80;;;36.83;;
4808;SDS011;2418;49.930;8.606;2022-12-11T15:00:37;70.18;;;36.17;;
4808;SDS011;2418;49.930;8.606;2022-12-11T15:03:29;74.65;;;37.25;;
4808;SDS011;2418;49.930;8.606;2022-12-11T15:05:55;79.22;;;39.78;;
4808;SDS011;2418;49.930;8.606;2022-12-11T15:11:16;74.85;;;38.45;;
4808;SDS011;2418;49.930;8.606;2022-12-11T15:16:19;75.55;;;38.20;;
4808;SDS011;2418;49.930;8.606;2022-12-11T15:18:47;106.95;;;47.78;;
4808;SDS011;2418;49.930;8.606;2022-12-11T15:21:14;104.65;;;47.78;;
4808;SDS011;2418;49.930;8.606;2022-12-11T15:26:17;87.47;;;42.20;;
4808;SDS011;2418;49.930;8.606;2022-12-11T15:28:45;84.45;;;40.88;;
4808;SDS011;2418;49.930;8.606;2022-12-11T15:31:22;87.13;;;44.25;;
4808;SDS011;2418;49.930;8.606;2022-12-11T15:33:51;88.35;;;43.88;;
4808;SDS011;2418;49.930;8.606;2022-12-11T15:36:22;73.95;;;39.60;;
4808;SDS011;2418;49.930;8.606;2022-12-11T15:38:54;74.38;;;38.80;;
4808;SDS011;2418;49.930;8.606;2022-12-11T15:41:21;68.47;;;35.15;;
4808;SDS011;2418;49.930;8.606;2022-12-11T15:43:49;70.45;;;36.95;;
4808;SDS011;2418;49.930;8.606;2022-12-11T15:46:17;67.72;;;38.22;;
4808;SDS011;2418;49.930;8.606;2022-12-11T15:48:42;73.53;;;38.95;;
4808;SDS011;2418;49.930;8.606;2022-12-11T15:51:08;74.85;;;37.85;;
4808;SDS011;2418;49.930;8.606;2022-12-11T15:53:34;69.72;;;37.60;;
4808;SDS011;2418;49.930;8.606;2022-12-11T15:56:00;68.70;;;36.47;;
4808;SDS011;2418;49.930;8.606;2022-12-11T15:58:26;66.88;;;36.00;;
4808;SDS011;2418;49.930;8.606;2022-12-11T16:00:52;72.32;;;37.40;;
4808;SDS011;2418;49.930;8.606;2022-12-11T16:03:20;68.55;;;36.10;;
4808;SDS011;2418;49.930;8.606;2022-12-11T16:05:47;68.13;;;35.40;;
4808;SDS011;2418;49.930;8.606;2022-12-11T16:08:15;68.33;;;35.03;;
4808;SDS011;2418;49.930;8.606;2022-12-11T16:10:42;62.72;;;34.50;;
4808;SDS011;2418;49.930;8.606;2022-12-11T16:13:10;58.65;;;32.40;;
4808;SDS011;2418;49.930;8.606;2022-12-11T16:15:39;65.60;;;35.42;;
4808;SDS011;2418;49.930;8.606;2022-12-11T16:18:12;62.20;;;32.17;;
4808;SDS011;2418;49.930;8.606;2022-12-11T16:20:43;60.63;;;32.58;;
4808;SDS011;2418;49.930;8.606;2022-12-11T16:23:10;69.82;;;34.78;;
4808;SDS011;2418;49.930;8.606;2022-12-11T16:25:37;72.38;;;38.47;;
4808;SDS011;2418;49.930;8.606;2022-12-11T16:28:05;73.03;;;38.35;;